Snel-info
Kleurcode:
Geel
Er mag gevlogen worden.
Voorzichtigheid geboden!
Laatste update: 01/06/2018
Kleurcode informatie

Grasmaaien:

Geen maaibeurten gepland.

Volgende vliegdagen:

  • wo 15 augustus : OLV Hemelvaart
  • do 1 november : Allerheiligen
  • vr 2 november : Allerzielen
Alle extra vliegdagen

Weersituatie op PMF:

1_Jets_Over_Pampa_2011__025_Dirk.jpg

Huidige weersituatie

Huidig weerbeeld in Kleine Brogel, Belgium
Huidige wind in Kleine Brogel, Belgium

Dit is het bericht voor Kleine Brogel, Belgium en werd 37 minuten geleden gemaakt.
De wind waaide met een snelheid van 4.1 meter per seconde (14.8 km/h) uit het westen (260°).
De temperatuur was 21 °C. De atmosferische druk was 1022 hPa. De relative luchtvochtigheid was 68.6%.
Het was zwaar bewolkt op een hoogte van 640 meter. Het algemene zicht was meer dan 10 kilometer.

De onbewerkte METAR gegevens waarop dit bericht is gebaseerd zijn:
EBBL 200825Z 26008KT 9999 BKN021 21/15 Q1022 WHT WHT


Opmerking:
De wind blijkt op PMF meestal iets krachtiger te waaien dan op Kleine Brogel. De windrichting klopt dan weer wel.




KMI

De weersvoorspellingen van het KMI vind je via deze link.


Buienradar

Op www.buienradar.nl kun je zelf zien waar het nu en de komende uren regent.